createdAt,value
2023-05-08T00:01:19.893Z,99865.25
2023-05-08T00:03:46.687Z,99867.38
2023-05-08T00:06:13.356Z,99861.75
2023-05-08T00:08:40.435Z,99857.94
2023-05-08T00:11:06.925Z,99860.81
2023-05-08T00:13:33.483Z,99860.44
2023-05-08T00:16:00.030Z,99862.69
2023-05-08T00:18:26.639Z,99852.25
2023-05-08T00:20:53.260Z,99835.16
2023-05-08T00:23:22.127Z,99842.50
2023-05-08T00:25:48.704Z,99842.09
2023-05-08T00:28:15.278Z,99834.97
2023-05-08T00:30:42.631Z,99837.03
2023-05-08T00:33:09.910Z,99835.38
2023-05-08T00:35:36.542Z,99825.66
2023-05-08T00:38:03.363Z,99822.78
2023-05-08T00:40:29.877Z,99833.66
2023-05-08T00:42:56.371Z,99833.03
2023-05-08T00:45:22.982Z,99830.84
2023-05-08T00:47:51.112Z,99833.91
2023-05-08T00:50:18.447Z,99828.63
2023-05-08T00:52:46.387Z,99823.94
2023-05-08T00:55:13.012Z,99824.81
2023-05-08T00:57:39.828Z,99833.59
2023-05-08T01:00:07.703Z,99835.66
2023-05-08T01:02:35.423Z,99831.56
2023-05-08T01:05:03.662Z,99835.38
2023-05-08T01:07:30.185Z,99830.09
2023-05-08T01:09:56.713Z,99829.66
2023-05-08T01:12:47.890Z,99816.34
2023-05-08T01:15:21.317Z,99794.66
2023-05-08T01:17:50.722Z,99778.81
2023-05-08T01:20:39.125Z,99751.31
2023-05-08T01:23:32.688Z,99734.56
2023-05-08T01:26:17.199Z,99720.84
2023-05-08T01:29:21.467Z,99722.31
2023-05-08T01:32:13.242Z,99705.91
2023-05-08T01:35:10.857Z,99705.16
2023-05-08T01:37:52.280Z,99710.09
2023-05-08T01:40:32.056Z,99721.19
2023-05-08T01:43:08.173Z,99735.13
2023-05-08T01:45:44.992Z,99726.06
2023-05-08T01:48:17.335Z,99740.59
2023-05-08T01:50:49.614Z,99741.47
2023-05-08T01:53:37.139Z,99740.22
2023-05-08T01:56:09.709Z,99732.50
2023-05-08T01:58:38.392Z,99719.16
2023-05-08T02:01:06.127Z,99706.53
2023-05-08T02:03:35.241Z,99686.19
2023-05-08T02:06:03.129Z,99672.56
2023-05-08T02:08:30.107Z,99649.97
2023-05-08T02:10:59.335Z,99617.75
2023-05-08T02:13:27.719Z,99603.38
2023-05-08T02:15:56.302Z,99592.66
2023-05-08T02:18:25.659Z,99574.00
2023-05-08T02:20:53.819Z,99571.47
2023-05-08T02:23:22.450Z,99563.22
2023-05-08T02:25:51.010Z,99548.44
2023-05-08T02:28:19.399Z,99544.06
2023-05-08T02:30:47.351Z,99529.34
2023-05-08T02:33:16.219Z,99521.50
2023-05-08T02:35:45.890Z,99510.75
2023-05-08T02:38:15.695Z,99511.88
2023-05-08T02:40:48.404Z,99513.88
2023-05-08T02:43:15.196Z,99508.91
2023-05-08T02:45:48.754Z,99496.78
2023-05-08T02:48:22.591Z,99495.53
2023-05-08T02:51:10.557Z,99486.84
2023-05-08T02:53:52.995Z,99484.53
2023-05-08T02:56:31.885Z,99480.59
2023-05-08T02:59:19.035Z,99472.41
2023-05-08T03:01:58.774Z,99463.16
2023-05-08T03:04:36.542Z,99462.13
2023-05-08T03:07:04.618Z,99460.28
2023-05-08T03:09:43.089Z,99466.63
2023-05-08T03:12:20.854Z,99466.63
2023-05-08T03:14:55.366Z,99461.00
2023-05-08T03:17:24.705Z,99463.63
2023-05-08T03:19:57.247Z,99463.88
2023-05-08T03:22:25.519Z,99472.06
2023-05-08T03:24:53.782Z,99480.25
2023-05-08T03:27:20.955Z,99477.59
2023-05-08T03:29:48.666Z,99475.75
2023-05-08T03:32:15.999Z,99472.53
2023-05-08T03:34:43.079Z,99485.25
2023-05-08T03:37:09.809Z,99490.75
2023-05-08T03:39:36.596Z,99491.81
2023-05-08T03:42:03.390Z,99488.91
2023-05-08T03:44:30.669Z,99481.53
2023-05-08T03:46:58.617Z,99485.78
2023-05-08T03:49:26.715Z,99488.09
2023-05-08T03:51:55.817Z,99493.88
2023-05-08T03:54:25.471Z,99496.78
2023-05-08T03:56:54.209Z,99495.16
2023-05-08T03:59:33.969Z,99504.38
2023-05-08T04:02:17.479Z,99515.47
2023-05-08T04:04:47.222Z,99522.06
2023-05-08T04:07:35.938Z,99517.19
2023-05-08T04:10:07.495Z,99522.75
2023-05-08T04:12:49.416Z,99518.13
2023-05-08T04:15:25.899Z,99521.94
2023-05-08T04:18:14.818Z,99528.75
2023-05-08T04:20:44.516Z,99531.16
2023-05-08T04:23:17.167Z,99541.88
2023-05-08T04:25:44.662Z,99544.41
2023-05-08T04:28:11.930Z,99552.38
2023-05-08T04:30:40.086Z,99556.63
2023-05-08T04:33:07.883Z,99553.19
2023-05-08T04:35:34.781Z,99559.28
2023-05-08T04:38:02.829Z,99558.03
2023-05-08T04:40:29.370Z,99570.47
2023-05-08T04:42:56.272Z,99561.50
2023-05-08T04:45:22.945Z,99576.03
2023-05-08T04:47:49.472Z,99581.91
2023-05-08T04:50:16.074Z,99588.59
2023-05-08T04:52:43.094Z,99592.66
2023-05-08T04:55:10.444Z,99587.56
2023-05-08T04:57:37.068Z,99595.53
2023-05-08T05:00:05.917Z,99593.47
2023-05-08T05:02:32.473Z,99599.47
2023-05-08T05:05:01.217Z,99598.22
2023-05-08T05:07:27.769Z,99595.56
2023-05-08T05:09:54.287Z,99599.16
2023-05-08T05:12:20.884Z,99598.91
2023-05-08T05:14:47.332Z,99614.03
2023-05-08T05:17:13.828Z,99608.25
2023-05-08T05:19:40.486Z,99611.50
2023-05-08T05:22:08.197Z,99620.03
2023-05-08T05:24:36.261Z,99614.28
2023-05-08T05:27:03.073Z,99617.75
2023-05-08T05:29:30.334Z,99624.28
2023-05-08T05:31:56.923Z,99625.00
2023-05-08T05:34:23.624Z,99633.97
2023-05-08T05:36:50.158Z,99633.97
2023-05-08T05:39:16.646Z,99634.56
2023-05-08T05:41:44.310Z,99637.44
2023-05-08T05:44:11.351Z,99629.25
2023-05-08T05:46:37.848Z,99636.63
2023-05-08T05:49:04.508Z,99646.56
2023-05-08T05:51:30.968Z,99654.66
2023-05-08T05:53:57.519Z,99646.22
2023-05-08T05:56:24.001Z,99650.25
2023-05-08T05:58:50.610Z,99656.16
2023-05-08T06:01:17.588Z,99652.00
2023-05-08T06:03:44.538Z,99653.50
2023-05-08T06:06:11.532Z,99656.16
2023-05-08T06:08:38.300Z,99652.50
2023-05-08T06:11:04.948Z,99645.44
2023-05-08T06:13:31.711Z,99650.88
2023-05-08T06:15:58.390Z,99648.44
2023-05-08T06:18:24.898Z,99654.56
2023-05-08T06:20:57.381Z,99646.97
2023-05-08T06:23:24.081Z,99645.09
2023-05-08T06:25:50.733Z,99649.63
2023-05-08T06:28:17.363Z,99657.69
2023-05-08T06:30:43.934Z,99661.97
2023-05-08T06:33:11.332Z,99667.03
2023-05-08T06:35:37.868Z,99681.84
2023-05-08T06:38:04.482Z,99683.56
2023-05-08T06:40:31.478Z,99688.75
2023-05-08T06:42:58.239Z,99690.94
2023-05-08T06:45:24.754Z,99697.66
2023-05-08T06:47:51.274Z,99691.75
2023-05-08T06:50:17.886Z,99704.94
2023-05-08T06:52:44.442Z,99706.88
2023-05-08T06:55:11.212Z,99710.34
2023-05-08T06:57:38.023Z,99725.94
2023-05-08T07:00:04.952Z,99724.78
2023-05-08T07:02:31.496Z,99727.78
2023-05-08T07:04:58.097Z,99732.56
2023-05-08T07:07:24.710Z,99739.94
2023-05-08T07:09:51.345Z,99730.03
2023-05-08T07:12:17.984Z,99738.00
2023-05-08T07:14:44.551Z,99744.22
2023-05-08T07:17:11.115Z,99753.13
2023-05-08T07:19:38.327Z,99757.97
2023-05-08T07:22:06.053Z,99774.63
2023-05-08T07:24:33.197Z,99778.75
2023-05-08T07:26:59.918Z,99803.03
2023-05-08T07:29:27.191Z,99802.00
2023-05-08T07:31:54.173Z,99800.97
2023-05-08T07:34:21.047Z,99806.97
2023-05-08T07:36:47.599Z,99817.16
2023-05-08T07:39:14.280Z,99825.72
2023-05-08T07:41:41.226Z,99835.28
2023-05-08T07:44:08.023Z,99831.50
2023-05-08T07:46:34.639Z,99838.00
2023-05-08T07:49:01.471Z,99843.53
2023-05-08T07:51:28.041Z,99846.09
2023-05-08T07:53:55.186Z,99863.91
2023-05-08T07:56:25.000Z,99878.94
2023-05-08T07:58:51.556Z,99889.69
2023-05-08T08:01:19.306Z,99888.66
2023-05-08T08:03:46.520Z,99901.16
2023-05-08T08:06:13.554Z,99923.34
2023-05-08T08:08:40.497Z,99926.81
2023-05-08T08:11:07.704Z,99949.41
2023-05-08T08:13:34.504Z,99958.88
2023-05-08T08:16:03.892Z,99984.28
2023-05-08T08:18:33.630Z,100013.31
2023-05-08T08:21:00.196Z,100030.81
2023-05-08T08:23:26.663Z,100055.09
2023-05-08T08:25:53.582Z,100085.34
2023-05-08T08:28:20.069Z,100106.38
2023-05-08T08:30:46.728Z,100116.84
2023-05-08T08:33:13.249Z,100123.44
2023-05-08T08:35:39.844Z,100135.25
2023-05-08T08:38:06.683Z,100162.00
2023-05-08T08:40:33.623Z,100161.69
2023-05-08T08:43:00.173Z,100192.78
2023-05-08T08:45:26.673Z,100210.19
2023-05-08T08:47:53.765Z,100228.38
2023-05-08T08:50:22.866Z,100252.72
2023-05-08T08:53:01.296Z,100271.94
2023-05-08T08:55:29.873Z,100283.44
2023-05-08T08:58:15.448Z,100295.41
2023-05-08T09:00:43.064Z,100301.25
2023-05-08T09:03:10.373Z,100321.75
2023-05-08T09:05:38.338Z,100340.59
2023-05-08T09:08:07.106Z,100359.94
2023-05-08T09:10:34.945Z,100383.09
2023-05-08T09:13:01.456Z,100380.97
2023-05-08T09:15:28.207Z,100403.56
2023-05-08T09:17:57.921Z,100417.03
2023-05-08T09:20:25.397Z,100431.19
2023-05-08T09:22:54.142Z,100424.25
2023-05-08T09:25:20.880Z,100441.75
2023-05-08T09:27:47.369Z,100448.81
2023-05-08T09:30:16.842Z,100456.31
2023-05-08T09:32:45.846Z,100464.78
2023-05-08T09:35:13.290Z,100471.31
2023-05-08T09:37:42.342Z,100484.44
2023-05-08T09:40:29.253Z,100491.91
2023-05-08T09:42:55.797Z,100508.50
2023-05-08T09:45:33.085Z,100520.56
2023-05-08T09:47:59.669Z,100517.47
2023-05-08T09:50:28.033Z,100544.28
2023-05-08T09:52:54.784Z,100541.22
2023-05-08T09:55:21.538Z,100543.25
2023-05-08T09:57:57.271Z,100557.09
2023-05-08T10:00:28.554Z,100566.97
2023-05-08T10:03:03.005Z,100578.94
2023-05-08T10:05:32.178Z,100604.91
2023-05-08T10:08:17.424Z,100621.72
2023-05-08T10:10:44.335Z,100640.97
2023-05-08T10:13:10.979Z,100643.91
2023-05-08T10:15:38.793Z,100664.44
2023-05-08T10:18:08.985Z,100681.16
2023-05-08T10:20:42.388Z,100716.41
2023-05-08T10:23:14.475Z,100730.25
2023-05-08T10:25:46.860Z,100760.78
2023-05-08T10:28:18.426Z,100770.75
2023-05-08T10:30:48.964Z,100800.44
2023-05-08T10:33:20.294Z,100815.66
2023-05-08T10:35:48.280Z,100870.06
2023-05-08T10:38:16.458Z,100907.91
2023-05-08T10:40:43.509Z,100960.91
2023-05-08T10:43:11.469Z,101004.75
2023-05-08T10:45:38.949Z,101056.97
2023-05-08T10:48:24.132Z,101107.06
2023-05-08T10:51:02.788Z,101130.22
2023-05-08T10:53:51.508Z,101173.66
2023-05-08T10:56:18.084Z,101203.19
2023-05-08T10:58:44.666Z,101240.66
2023-05-08T11:01:13.053Z,101282.16
2023-05-08T11:03:45.249Z,101320.41
2023-05-08T11:06:12.712Z,101347.97
2023-05-08T11:08:53.254Z,101374.66
2023-05-08T11:11:30.358Z,101407.38
2023-05-08T11:14:09.753Z,101428.47
2023-05-08T11:16:54.454Z,101473.94
2023-05-08T11:19:25.073Z,101499.41
2023-05-08T11:22:19.857Z,101523.41
2023-05-08T11:25:07.257Z,101561.94
2023-05-08T11:27:38.873Z,101593.41
2023-05-08T11:30:26.825Z,101613.59
2023-05-08T11:33:05.515Z,101643.47
2023-05-08T11:35:49.825Z,101643.59
2023-05-08T11:38:19.409Z,101661.50
2023-05-08T11:40:55.945Z,101689.88
2023-05-08T11:43:37.857Z,101716.63
2023-05-08T11:46:08.487Z,101730.00
2023-05-08T11:48:35.979Z,101739.84
2023-05-08T11:51:04.153Z,101757.09
2023-05-08T11:53:31.659Z,101791.06
2023-05-08T11:55:59.679Z,101816.81
2023-05-08T11:58:26.740Z,101819.91
2023-05-08T12:00:54.514Z,101838.28
2023-05-08T12:03:23.145Z,101845.50
2023-05-08T12:05:50.632Z,101853.75
2023-05-08T12:08:18.367Z,101855.00
2023-05-08T12:10:57.454Z,101869.41
2023-05-08T12:13:29.864Z,101872.88
2023-05-08T12:15:59.850Z,101879.09
2023-05-08T12:18:29.401Z,101894.53
2023-05-08T12:21:00.984Z,101904.84
2023-05-08T12:23:32.457Z,101904.00
2023-05-08T12:26:00.674Z,101903.38
2023-05-08T12:28:27.638Z,101900.53
2023-05-08T12:30:54.509Z,101912.25
2023-05-08T12:33:21.769Z,101916.97
2023-05-08T12:35:48.522Z,101928.91
2023-05-08T12:38:15.190Z,101927.03
2023-05-08T12:40:45.178Z,101927.44
2023-05-08T12:43:12.058Z,101943.50
2023-05-08T12:45:41.137Z,101934.03
2023-05-08T12:48:13.164Z,101939.38
2023-05-08T12:50:41.336Z,101943.25
2023-05-08T12:53:10.022Z,101929.84
2023-05-08T12:55:38.407Z,101928.13
2023-05-08T12:58:06.679Z,101922.22
2023-05-08T13:00:51.525Z,101919.13
2023-05-08T13:03:26.532Z,101925.25
2023-05-08T13:05:55.584Z,101922.56
2023-05-08T13:08:30.933Z,101917.00
2023-05-08T13:10:57.437Z,101912.94
2023-05-08T13:13:26.901Z,101916.63
2023-05-08T13:15:55.570Z,101925.03
2023-05-08T13:18:25.295Z,101926.06
2023-05-08T13:20:52.003Z,101923.00
2023-05-08T13:23:18.691Z,101921.66
2023-05-08T13:25:45.289Z,101919.84
2023-05-08T13:28:12.360Z,101920.69
2023-05-08T13:30:39.198Z,101940.84
2023-05-08T13:33:06.404Z,101942.09
2023-05-08T13:35:33.898Z,101958.16
2023-05-08T13:38:00.614Z,101967.25
2023-05-08T13:40:27.651Z,101970.13
2023-05-08T13:42:54.236Z,101973.22
2023-05-08T13:45:21.336Z,101976.47
2023-05-08T13:47:50.072Z,101988.84
2023-05-08T13:50:19.471Z,102006.78
2023-05-08T13:52:46.055Z,102012.06
2023-05-08T13:55:14.186Z,102028.28
2023-05-08T13:57:41.396Z,102032.00
2023-05-08T14:00:09.784Z,102043.56
2023-05-08T14:02:37.676Z,102046.59
2023-05-08T14:05:08.093Z,102056.03
2023-05-08T14:07:35.673Z,102070.66
2023-05-08T14:10:02.401Z,102069.22
2023-05-08T14:12:29.000Z,102074.00
2023-05-08T14:14:55.888Z,102072.31
2023-05-08T14:17:22.491Z,102063.88
2023-05-08T14:19:49.092Z,102066.41
2023-05-08T14:22:15.720Z,102085.66
2023-05-08T14:24:42.277Z,102072.66
2023-05-08T14:27:08.910Z,102078.50
2023-05-08T14:29:35.755Z,102084.72
2023-05-08T14:32:02.663Z,102079.81
2023-05-08T14:34:29.373Z,102077.50
2023-05-08T14:36:56.040Z,102075.84
2023-05-08T14:39:22.569Z,102068.16
2023-05-08T14:42:05.736Z,102057.84
2023-05-08T14:44:35.991Z,102046.28
2023-05-08T14:47:02.653Z,102036.78
2023-05-08T14:49:37.350Z,102022.84
2023-05-08T14:52:05.780Z,102024.72
2023-05-08T14:54:33.146Z,102021.25
2023-05-08T14:57:00.203Z,102016.69
2023-05-08T14:59:26.823Z,102019.97
2023-05-08T15:01:53.456Z,102024.66
2023-05-08T15:04:20.565Z,102034.94
2023-05-08T15:06:47.432Z,102040.75
2023-05-08T15:09:16.319Z,102041.53
2023-05-08T15:11:43.018Z,102048.94
2023-05-08T15:14:09.652Z,102045.41
2023-05-08T15:16:36.414Z,102048.84
2023-05-08T15:19:03.073Z,102067.81
2023-05-08T15:21:29.863Z,102071.38
2023-05-08T15:23:56.456Z,102079.31
2023-05-08T15:26:23.241Z,102098.19
2023-05-08T15:28:50.949Z,102108.56
2023-05-08T15:31:18.502Z,102113.38
2023-05-08T15:33:45.450Z,102117.34
2023-05-08T15:36:13.731Z,102116.03
2023-05-08T15:38:41.199Z,102113.66
2023-05-08T15:41:12.079Z,102096.34
2023-05-08T15:43:39.557Z,102091.22
2023-05-08T15:46:06.508Z,102096.22
2023-05-08T15:48:33.564Z,102093.34
2023-05-08T15:51:00.156Z,102096.69
2023-05-08T15:53:26.768Z,102088.44
2023-05-08T15:55:54.148Z,102091.94
2023-05-08T15:58:21.160Z,102083.91
2023-05-08T16:00:47.793Z,102078.09
2023-05-08T16:03:14.704Z,102077.66
2023-05-08T16:05:41.658Z,102073.09
2023-05-08T16:08:12.187Z,102074.31
2023-05-08T16:10:39.664Z,102057.44
2023-05-08T16:13:06.293Z,102062.59
2023-05-08T16:15:32.897Z,102044.91
2023-05-08T16:17:59.442Z,102048.03
2023-05-08T16:20:26.154Z,102048.25
2023-05-08T16:22:55.036Z,102060.81
2023-05-08T16:25:22.045Z,102044.72
2023-05-08T16:27:49.303Z,102027.22
2023-05-08T16:30:16.446Z,102035.88
2023-05-08T16:32:44.825Z,102049.47
2023-05-08T16:35:11.866Z,102053.41
2023-05-08T16:37:38.935Z,102068.25
2023-05-08T16:40:07.508Z,102061.25
2023-05-08T16:42:34.271Z,102051.31
2023-05-08T16:45:00.814Z,102061.66
2023-05-08T16:47:27.567Z,102067.63
2023-05-08T16:49:55.516Z,102072.16
2023-05-08T16:52:22.048Z,102067.19
2023-05-08T16:54:48.559Z,102059.16
2023-05-08T16:57:15.083Z,102049.28
2023-05-08T16:59:41.844Z,102028.66
2023-05-08T17:02:08.457Z,102032.38
2023-05-08T17:04:35.120Z,102017.56
2023-05-08T17:07:01.808Z,102021.63
2023-05-08T17:09:28.365Z,102025.31
2023-05-08T17:11:55.013Z,102023.06
2023-05-08T17:14:21.543Z,102021.44
2023-05-08T17:16:48.082Z,102014.03
2023-05-08T17:19:14.644Z,102004.94
2023-05-08T17:21:41.862Z,102010.09
2023-05-08T17:24:08.571Z,102004.94
2023-05-08T17:26:35.338Z,102025.31
2023-05-08T17:29:01.954Z,102022.63
2023-05-08T17:31:28.948Z,102017.69
2023-05-08T17:33:55.729Z,102009.47
2023-05-08T17:36:23.676Z,102008.81
2023-05-08T17:38:52.074Z,101994.38
2023-05-08T17:41:18.788Z,102004.06
2023-05-08T17:43:45.292Z,101997.03
2023-05-08T17:46:11.988Z,101994.94
2023-05-08T17:48:38.652Z,101989.34
2023-05-08T17:51:05.550Z,101983.13
2023-05-08T17:53:32.792Z,101992.53
2023-05-08T17:55:59.324Z,101986.34
2023-05-08T17:58:25.975Z,101983.63
2023-05-08T18:00:53.993Z,101964.63
2023-05-08T18:03:20.739Z,101963.59
2023-05-08T18:05:47.556Z,101961.72
2023-05-08T18:08:14.076Z,101961.47
2023-05-08T18:10:41.066Z,101958.38
2023-05-08T18:13:07.846Z,101948.28
2023-05-08T18:15:39.061Z,101948.03
2023-05-08T18:18:05.831Z,101934.66
2023-05-08T18:20:33.448Z,101927.63
2023-05-08T18:23:00.028Z,101928.59
2023-05-08T18:25:26.688Z,101927.34
2023-05-08T18:27:53.380Z,101924.44
2023-05-08T18:30:19.853Z,101918.47
2023-05-08T18:32:46.460Z,101913.31
2023-05-08T18:35:13.184Z,101901.16
2023-05-08T18:37:39.754Z,101894.75
2023-05-08T18:40:06.898Z,101891.03
2023-05-08T18:42:33.408Z,101884.59
2023-05-08T18:45:00.885Z,101882.09
2023-05-08T18:47:27.539Z,101876.91
2023-05-08T18:49:54.094Z,101853.03
2023-05-08T18:52:20.765Z,101856.47
2023-05-08T18:54:47.270Z,101849.63
2023-05-08T18:57:14.016Z,101851.41
2023-05-08T18:59:40.711Z,101842.91
2023-05-08T19:02:07.429Z,101838.91
2023-05-08T19:04:34.062Z,101831.25
2023-05-08T19:07:01.065Z,101824.22
2023-05-08T19:09:27.831Z,101811.44
2023-05-08T19:11:54.646Z,101816.31
2023-05-08T19:14:21.245Z,101806.88
2023-05-08T19:16:47.759Z,101800.44
2023-05-08T19:19:14.315Z,101788.31
2023-05-08T19:21:40.885Z,101788.88
2023-05-08T19:24:07.927Z,101781.66
2023-05-08T19:26:34.544Z,101769.72
2023-05-08T19:29:01.108Z,101767.81
2023-05-08T19:31:27.733Z,101771.06
2023-05-08T19:33:54.867Z,101775.94
2023-05-08T19:36:21.445Z,101769.97
2023-05-08T19:38:47.990Z,101766.66
2023-05-08T19:41:14.599Z,101765.22
2023-05-08T19:43:41.275Z,101749.63
2023-05-08T19:46:07.827Z,101751.38
2023-05-08T19:48:34.587Z,101743.78
2023-05-08T19:51:08.135Z,101737.16
2023-05-08T19:53:34.860Z,101735.91
2023-05-08T19:56:01.479Z,101727.47
2023-05-08T19:58:28.086Z,101723.31
2023-05-08T20:00:54.689Z,101707.09
2023-05-08T20:03:21.365Z,101696.81
2023-05-08T20:05:48.381Z,101681.63
2023-05-08T20:08:15.008Z,101675.19
2023-05-08T20:10:41.486Z,101669.44
2023-05-08T20:13:08.065Z,101658.31
2023-05-08T20:15:34.595Z,101644.56
2023-05-08T20:18:01.326Z,101639.81
2023-05-08T20:20:29.620Z,101621.38
2023-05-08T20:22:56.358Z,101610.94
2023-05-08T20:25:23.054Z,101598.00
2023-05-08T20:27:49.577Z,101597.38
2023-05-08T20:30:16.584Z,101592.69
2023-05-08T20:32:43.229Z,101577.91
2023-05-08T20:35:09.784Z,101574.44
2023-05-08T20:37:43.020Z,101565.19
2023-05-08T20:40:09.967Z,101560.88
2023-05-08T20:42:36.528Z,101543.66
2023-05-08T20:45:03.201Z,101541.81
2023-05-08T20:47:29.834Z,101533.38
2023-05-08T20:49:56.481Z,101524.09
2023-05-08T20:52:23.073Z,101508.16
2023-05-08T20:54:50.472Z,101499.53
2023-05-08T20:57:18.379Z,101492.78
2023-05-08T20:59:47.280Z,101493.56
2023-05-08T21:02:14.051Z,101484.16
2023-05-08T21:04:40.659Z,101472.69
2023-05-08T21:07:07.264Z,101471.88
2023-05-08T21:09:33.942Z,101458.75
2023-05-08T21:12:00.690Z,101445.44
2023-05-08T21:14:27.241Z,101430.97
2023-05-08T21:16:56.899Z,101430.97
2023-05-08T21:19:23.789Z,101413.63
2023-05-08T21:21:53.350Z,101408.13
2023-05-08T21:24:19.897Z,101400.94
2023-05-08T21:26:46.529Z,101398.47
2023-05-08T21:29:13.103Z,101397.47
2023-05-08T21:31:41.353Z,101378.66
2023-05-08T21:34:08.036Z,101376.81
2023-05-08T21:36:35.267Z,101369.22
2023-05-08T21:39:03.059Z,101361.69
2023-05-08T21:41:29.629Z,101357.00
2023-05-08T21:43:56.712Z,101342.50
2023-05-08T21:46:23.251Z,101330.22
2023-05-08T21:48:49.822Z,101319.00
2023-05-08T21:51:16.375Z,101303.69
2023-05-08T21:53:43.036Z,101296.53
2023-05-08T21:56:09.562Z,101287.72
2023-05-08T21:58:36.255Z,101276.69
2023-05-08T22:01:02.783Z,101258.91
2023-05-08T22:03:29.688Z,101248.06
2023-05-08T22:05:56.554Z,101231.91
2023-05-08T22:08:23.023Z,101222.09
2023-05-08T22:10:50.837Z,101211.88
2023-05-08T22:13:17.582Z,101199.38
2023-05-08T22:15:44.365Z,101195.91
2023-05-08T22:18:11.013Z,101195.09
2023-05-08T22:20:37.478Z,101184.25
2023-05-08T22:23:04.031Z,101180.75
2023-05-08T22:25:30.980Z,101174.44
2023-05-08T22:27:57.650Z,101171.78
2023-05-08T22:30:24.248Z,101164.63
2023-05-08T22:32:57.098Z,101159.09
2023-05-08T22:35:25.346Z,101154.56
2023-05-08T22:37:53.010Z,101150.91
2023-05-08T22:40:20.196Z,101156.22
2023-05-08T22:42:46.847Z,101146.38
2023-05-08T22:45:14.095Z,101143.94
2023-05-08T22:47:41.004Z,101147.41
2023-05-08T22:50:09.243Z,101129.22
2023-05-08T22:52:36.276Z,101124.53
2023-05-08T22:55:03.242Z,101125.31
2023-05-08T22:57:29.979Z,101121.66
2023-05-08T22:59:56.505Z,101107.53
2023-05-08T23:02:23.386Z,101103.88
2023-05-08T23:04:50.008Z,101110.19
2023-05-08T23:07:16.715Z,101097.72
2023-05-08T23:09:43.216Z,101105.28
2023-05-08T23:12:09.698Z,101100.78
2023-05-08T23:14:36.214Z,101096.28
2023-05-08T23:17:02.724Z,101092.41
2023-05-08T23:19:29.312Z,101088.72
2023-05-08T23:21:55.863Z,101086.03
2023-05-08T23:24:22.384Z,101085.84
2023-05-08T23:26:49.742Z,101081.56
2023-05-08T23:29:16.435Z,101083.19
2023-05-08T23:31:43.006Z,101074.19
2023-05-08T23:34:09.471Z,101077.84
2023-05-08T23:36:35.979Z,101072.53
2023-05-08T23:39:02.522Z,101070.50
2023-05-08T23:41:29.215Z,101066.63
2023-05-08T23:43:56.063Z,101071.75
2023-05-08T23:46:22.625Z,101068.06
2023-05-08T23:48:49.128Z,101067.84
2023-05-08T23:51:15.843Z,101072.16
2023-05-08T23:53:42.374Z,101077.47
2023-05-08T23:56:08.998Z,101072.38
2023-05-08T23:58:35.617Z,101068.06
